sensor_id;sensor_type;location;lat;lon;timestamp;temperature;humidity
18797;DHT22;9526;52.612;13.300;2024-02-04T00:00:39;8.10;99.90
18797;DHT22;9526;52.612;13.300;2024-02-04T00:03:03;8.10;99.90
18797;DHT22;9526;52.612;13.300;2024-02-04T00:05:27;8.10;99.90
18797;DHT22;9526;52.612;13.300;2024-02-04T00:07:51;8.00;99.90
18797;DHT22;9526;52.612;13.300;2024-02-04T00:10:15;8.10;99.90
18797;DHT22;9526;52.612;13.300;2024-02-04T00:12:40;8.10;99.90
18797;DHT22;9526;52.612;13.300;2024-02-04T00:15:06;8.00;99.90
18797;DHT22;9526;52.612;13.300;2024-02-04T00:17:30;8.10;99.90
18797;DHT22;9526;52.612;13.300;2024-02-04T00:19:55;8.10;99.90
18797;DHT22;9526;52.612;13.300;2024-02-04T00:22:19;8.10;99.90
18797;DHT22;9526;52.612;13.300;2024-02-04T00:24:42;8.00;99.90
18797;DHT22;9526;52.612;13.300;2024-02-04T00:27:06;8.00;99.90
18797;DHT22;9526;52.612;13.300;2024-02-04T00:29:31;8.00;99.90
18797;DHT22;9526;52.612;13.300;2024-02-04T00:31:56;8.00;99.90
18797;DHT22;9526;52.612;13.300;2024-02-04T00:34:20;8.00;99.90
18797;DHT22;9526;52.612;13.300;2024-02-04T00:36:43;8.00;99.90
18797;DHT22;9526;52.612;13.300;2024-02-04T00:39:07;7.90;99.90
18797;DHT22;9526;52.612;13.300;2024-02-04T00:41:32;7.80;99.90
18797;DHT22;9526;52.612;13.300;2024-02-04T00:43:55;7.80;99.90
18797;DHT22;9526;52.612;13.300;2024-02-04T00:46:19;7.80;99.90
18797;DHT22;9526;52.612;13.300;2024-02-04T00:48:44;7.70;99.90
18797;DHT22;9526;52.612;13.300;2024-02-04T00:51:08;7.70;99.90
18797;DHT22;9526;52.612;13.300;2024-02-04T00:53:32;7.60;99.90
18797;DHT22;9526;52.612;13.300;2024-02-04T00:55:56;7.60;99.90
18797;DHT22;9526;52.612;13.300;2024-02-04T00:58:20;7.60;99.90
18797;DHT22;9526;52.612;13.300;2024-02-04T01:00:44;7.50;99.90
18797;DHT22;9526;52.612;13.300;2024-02-04T01:03:08;7.50;99.90
18797;DHT22;9526;52.612;13.300;2024-02-04T01:05:33;7.50;99.90
18797;DHT22;9526;52.612;13.300;2024-02-04T01:07:56;7.40;99.90
18797;DHT22;9526;52.612;13.300;2024-02-04T01:10:20;7.40;99.90
18797;DHT22;9526;52.612;13.300;2024-02-04T01:12:44;7.30;99.90
18797;DHT22;9526;52.612;13.300;2024-02-04T01:15:08;7.30;99.90
18797;DHT22;9526;52.612;13.300;2024-02-04T01:17:32;7.20;99.90
18797;DHT22;9526;52.612;13.300;2024-02-04T01:19:56;7.20;99.90
18797;DHT22;9526;52.612;13.300;2024-02-04T01:22:21;7.20;99.90
18797;DHT22;9526;52.612;13.300;2024-02-04T01:24:48;7.20;99.90
18797;DHT22;9526;52.612;13.300;2024-02-04T01:27:12;7.20;99.90
18797;DHT22;9526;52.612;13.300;2024-02-04T01:29:35;7.20;99.90
18797;DHT22;9526;52.612;13.300;2024-02-04T01:31:59;7.20;99.90
18797;DHT22;9526;52.612;13.300;2024-02-04T01:34:22;7.10;99.90
18797;DHT22;9526;52.612;13.300;2024-02-04T01:36:46;7.10;99.90
18797;DHT22;9526;52.612;13.300;2024-02-04T01:39:11;7.00;99.90
18797;DHT22;9526;52.612;13.300;2024-02-04T01:41:35;7.00;99.90
18797;DHT22;9526;52.612;13.300;2024-02-04T01:44:00;6.90;99.90
18797;DHT22;9526;52.612;13.300;2024-02-04T01:46:22;7.00;99.90
18797;DHT22;9526;52.612;13.300;2024-02-04T01:48:46;6.90;99.90
18797;DHT22;9526;52.612;13.300;2024-02-04T01:51:10;6.80;99.90
18797;DHT22;9526;52.612;13.300;2024-02-04T01:53:34;6.80;99.90
18797;DHT22;9526;52.612;13.300;2024-02-04T01:56:00;6.70;99.90
18797;DHT22;9526;52.612;13.300;2024-02-04T01:58:24;6.70;99.90
18797;DHT22;9526;52.612;13.300;2024-02-04T02:00:48;6.70;99.90
18797;DHT22;9526;52.612;13.300;2024-02-04T02:03:14;6.70;99.90
18797;DHT22;9526;52.612;13.300;2024-02-04T02:05:39;6.60;99.90
18797;DHT22;9526;52.612;13.300;2024-02-04T02:08:04;6.60;99.90
18797;DHT22;9526;52.612;13.300;2024-02-04T02:10:28;6.60;99.90
18797;DHT22;9526;52.612;13.300;2024-02-04T02:12:58;6.50;99.90
18797;DHT22;9526;52.612;13.300;2024-02-04T02:15:25;6.50;99.90
18797;DHT22;9526;52.612;13.300;2024-02-04T02:17:55;6.50;99.90
18797;DHT22;9526;52.612;13.300;2024-02-04T02:20:24;6.50;99.90
18797;DHT22;9526;52.612;13.300;2024-02-04T02:22:57;6.50;99.90
18797;DHT22;9526;52.612;13.300;2024-02-04T02:25:27;6.40;99.90
18797;DHT22;9526;52.612;13.300;2024-02-04T02:27:51;6.40;99.90
18797;DHT22;9526;52.612;13.300;2024-02-04T02:30:15;6.40;99.90
18797;DHT22;9526;52.612;13.300;2024-02-04T02:32:40;6.40;99.90
18797;DHT22;9526;52.612;13.300;2024-02-04T02:35:04;6.40;99.90
18797;DHT22;9526;52.612;13.300;2024-02-04T02:37:32;6.40;99.90
18797;DHT22;9526;52.612;13.300;2024-02-04T02:40:03;6.40;99.90
18797;DHT22;9526;52.612;13.300;2024-02-04T02:42:33;6.40;99.90
18797;DHT22;9526;52.612;13.300;2024-02-04T02:44:58;6.40;99.90
18797;DHT22;9526;52.612;13.300;2024-02-04T02:47:23;6.40;99.90
18797;DHT22;9526;52.612;13.300;2024-02-04T02:49:47;6.40;99.90
18797;DHT22;9526;52.612;13.300;2024-02-04T02:52:11;6.40;99.90
18797;DHT22;9526;52.612;13.300;2024-02-04T02:54:34;6.40;99.90
18797;DHT22;9526;52.612;13.300;2024-02-04T02:56:58;6.40;99.90
18797;DHT22;9526;52.612;13.300;2024-02-04T02:59:23;6.50;99.90
18797;DHT22;9526;52.612;13.300;2024-02-04T03:01:47;6.60;99.90
18797;DHT22;9526;52.612;13.300;2024-02-04T03:04:11;6.60;99.90
18797;DHT22;9526;52.612;13.300;2024-02-04T03:06:34;6.60;99.90
18797;DHT22;9526;52.612;13.300;2024-02-04T03:08:58;6.70;99.90
18797;DHT22;9526;52.612;13.300;2024-02-04T03:11:22;6.70;99.90
18797;DHT22;9526;52.612;13.300;2024-02-04T03:13:45;6.70;99.90
18797;DHT22;9526;52.612;13.300;2024-02-04T03:16:11;6.80;99.90
18797;DHT22;9526;52.612;13.300;2024-02-04T03:18:36;6.80;99.90
18797;DHT22;9526;52.612;13.300;2024-02-04T03:21:02;6.90;99.90
18797;DHT22;9526;52.612;13.300;2024-02-04T03:23:26;6.90;99.90
18797;DHT22;9526;52.612;13.300;2024-02-04T03:25:50;6.90;99.90
18797;DHT22;9526;52.612;13.300;2024-02-04T03:28:13;6.90;99.90
18797;DHT22;9526;52.612;13.300;2024-02-04T03:30:37;6.90;99.90
18797;DHT22;9526;52.612;13.300;2024-02-04T03:33:03;7.00;99.90
18797;DHT22;9526;52.612;13.300;2024-02-04T03:35:27;7.00;99.90
18797;DHT22;9526;52.612;13.300;2024-02-04T03:37:51;7.00;99.90
18797;DHT22;9526;52.612;13.300;2024-02-04T03:40:15;7.10;99.90
18797;DHT22;9526;52.612;13.300;2024-02-04T03:42:41;7.10;99.90
18797;DHT22;9526;52.612;13.300;2024-02-04T03:45:05;7.10;99.90
18797;DHT22;9526;52.612;13.300;2024-02-04T03:47:31;7.10;99.90
18797;DHT22;9526;52.612;13.300;2024-02-04T03:49:56;7.20;99.90
18797;DHT22;9526;52.612;13.300;2024-02-04T03:52:19;7.20;99.90
18797;DHT22;9526;52.612;13.300;2024-02-04T03:54:42;7.20;99.90
18797;DHT22;9526;52.612;13.300;2024-02-04T03:57:06;7.20;99.90
18797;DHT22;9526;52.612;13.300;2024-02-04T03:59:30;7.10;99.90
18797;DHT22;9526;52.612;13.300;2024-02-04T04:01:54;7.20;99.90
18797;DHT22;9526;52.612;13.300;2024-02-04T04:04:20;7.10;99.90
18797;DHT22;9526;52.612;13.300;2024-02-04T04:06:45;7.20;99.90
18797;DHT22;9526;52.612;13.300;2024-02-04T04:09:10;7.10;99.90
18797;DHT22;9526;52.612;13.300;2024-02-04T04:11:34;7.10;99.90
18797;DHT22;9526;52.612;13.300;2024-02-04T04:13:59;7.10;99.90
18797;DHT22;9526;52.612;13.300;2024-02-04T04:16:24;7.10;99.90
18797;DHT22;9526;52.612;13.300;2024-02-04T04:18:47;7.00;99.90
18797;DHT22;9526;52.612;13.300;2024-02-04T04:21:11;7.00;99.90
18797;DHT22;9526;52.612;13.300;2024-02-04T04:23:36;7.00;99.90
18797;DHT22;9526;52.612;13.300;2024-02-04T04:26:00;7.00;99.90
18797;DHT22;9526;52.612;13.300;2024-02-04T04:28:24;7.00;99.90
18797;DHT22;9526;52.612;13.300;2024-02-04T04:30:47;7.00;99.90
18797;DHT22;9526;52.612;13.300;2024-02-04T04:33:11;6.90;99.90
18797;DHT22;9526;52.612;13.300;2024-02-04T04:35:35;6.90;99.90
18797;DHT22;9526;52.612;13.300;2024-02-04T04:37:59;6.90;99.90
18797;DHT22;9526;52.612;13.300;2024-02-04T04:40:24;6.90;99.90
18797;DHT22;9526;52.612;13.300;2024-02-04T04:42:48;6.90;99.90
18797;DHT22;9526;52.612;13.300;2024-02-04T04:45:12;6.90;99.90
18797;DHT22;9526;52.612;13.300;2024-02-04T04:47:37;6.90;99.90
18797;DHT22;9526;52.612;13.300;2024-02-04T04:50:02;6.90;99.90
18797;DHT22;9526;52.612;13.300;2024-02-04T04:52:26;6.90;99.90
18797;DHT22;9526;52.612;13.300;2024-02-04T04:54:50;6.90;99.90
18797;DHT22;9526;52.612;13.300;2024-02-04T04:57:15;6.90;99.90
18797;DHT22;9526;52.612;13.300;2024-02-04T04:59:39;6.90;99.90
18797;DHT22;9526;52.612;13.300;2024-02-04T05:02:03;6.90;99.90
18797;DHT22;9526;52.612;13.300;2024-02-04T05:04:27;6.90;99.90
18797;DHT22;9526;52.612;13.300;2024-02-04T05:06:51;6.90;99.90
18797;DHT22;9526;52.612;13.300;2024-02-04T05:09:15;6.80;99.90
18797;DHT22;9526;52.612;13.300;2024-02-04T05:11:39;6.80;99.90
18797;DHT22;9526;52.612;13.300;2024-02-04T05:14:04;6.80;99.90
18797;DHT22;9526;52.612;13.300;2024-02-04T05:16:27;6.80;99.90
18797;DHT22;9526;52.612;13.300;2024-02-04T05:18:51;6.80;99.90
18797;DHT22;9526;52.612;13.300;2024-02-04T05:21:15;6.80;99.90
18797;DHT22;9526;52.612;13.300;2024-02-04T05:23:39;6.80;99.90
18797;DHT22;9526;52.612;13.300;2024-02-04T05:26:03;6.80;99.90
18797;DHT22;9526;52.612;13.300;2024-02-04T05:28:27;6.80;99.90
18797;DHT22;9526;52.612;13.300;2024-02-04T05:30:52;6.80;99.90
18797;DHT22;9526;52.612;13.300;2024-02-04T05:33:16;6.80;99.90
18797;DHT22;9526;52.612;13.300;2024-02-04T05:35:39;6.70;99.90
18797;DHT22;9526;52.612;13.300;2024-02-04T05:38:04;6.70;99.90
18797;DHT22;9526;52.612;13.300;2024-02-04T05:40:28;6.70;99.90
18797;DHT22;9526;52.612;13.300;2024-02-04T05:42:52;6.70;99.90
18797;DHT22;9526;52.612;13.300;2024-02-04T05:45:16;6.70;99.90
18797;DHT22;9526;52.612;13.300;2024-02-04T05:47:41;6.60;99.90
18797;DHT22;9526;52.612;13.300;2024-02-04T05:50:06;6.60;99.90
18797;DHT22;9526;52.612;13.300;2024-02-04T05:52:30;6.60;99.90
18797;DHT22;9526;52.612;13.300;2024-02-04T05:54:54;6.50;99.90
18797;DHT22;9526;52.612;13.300;2024-02-04T05:57:20;6.50;99.90
18797;DHT22;9526;52.612;13.300;2024-02-04T05:59:43;6.50;99.90
18797;DHT22;9526;52.612;13.300;2024-02-04T06:02:09;6.50;99.90
18797;DHT22;9526;52.612;13.300;2024-02-04T06:04:35;6.50;99.90
18797;DHT22;9526;52.612;13.300;2024-02-04T06:06:59;6.50;99.90
18797;DHT22;9526;52.612;13.300;2024-02-04T06:09:22;6.40;99.90
18797;DHT22;9526;52.612;13.300;2024-02-04T06:11:46;6.40;99.90
18797;DHT22;9526;52.612;13.300;2024-02-04T06:14:10;6.50;99.90
18797;DHT22;9526;52.612;13.300;2024-02-04T06:16:33;6.50;99.90
18797;DHT22;9526;52.612;13.300;2024-02-04T06:18:57;6.50;99.90
18797;DHT22;9526;52.612;13.300;2024-02-04T06:21:23;6.50;99.90
18797;DHT22;9526;52.612;13.300;2024-02-04T06:23:47;6.50;99.90
18797;DHT22;9526;52.612;13.300;2024-02-04T06:26:11;6.50;99.90
18797;DHT22;9526;52.612;13.300;2024-02-04T06:28:35;6.50;99.90
18797;DHT22;9526;52.612;13.300;2024-02-04T06:30:59;6.50;99.90
18797;DHT22;9526;52.612;13.300;2024-02-04T06:33:23;6.50;99.90
18797;DHT22;9526;52.612;13.300;2024-02-04T06:35:48;6.60;99.90
18797;DHT22;9526;52.612;13.300;2024-02-04T06:38:13;6.60;99.90
18797;DHT22;9526;52.612;13.300;2024-02-04T06:40:36;6.60;99.90
18797;DHT22;9526;52.612;13.300;2024-02-04T06:43:00;6.50;99.90
18797;DHT22;9526;52.612;13.300;2024-02-04T06:45:24;6.50;99.90
18797;DHT22;9526;52.612;13.300;2024-02-04T06:47:48;6.50;99.90
18797;DHT22;9526;52.612;13.300;2024-02-04T06:50:11;6.50;99.90
18797;DHT22;9526;52.612;13.300;2024-02-04T06:52:36;6.50;99.90
18797;DHT22;9526;52.612;13.300;2024-02-04T06:55:01;6.50;99.90
18797;DHT22;9526;52.612;13.300;2024-02-04T06:57:25;6.50;99.90
18797;DHT22;9526;52.612;13.300;2024-02-04T06:59:49;6.50;99.90
18797;DHT22;9526;52.612;13.300;2024-02-04T07:02:12;6.50;99.90
18797;DHT22;9526;52.612;13.300;2024-02-04T07:04:36;6.50;99.90
18797;DHT22;9526;52.612;13.300;2024-02-04T07:07:00;6.50;99.90
18797;DHT22;9526;52.612;13.300;2024-02-04T07:09:24;6.50;99.90
18797;DHT22;9526;52.612;13.300;2024-02-04T07:11:49;6.60;99.90
18797;DHT22;9526;52.612;13.300;2024-02-04T07:14:13;6.60;99.90
18797;DHT22;9526;52.612;13.300;2024-02-04T07:16:37;6.60;99.90
18797;DHT22;9526;52.612;13.300;2024-02-04T07:19:01;6.50;99.90
18797;DHT22;9526;52.612;13.300;2024-02-04T07:21:25;6.60;99.90
18797;DHT22;9526;52.612;13.300;2024-02-04T07:23:48;6.60;99.90
18797;DHT22;9526;52.612;13.300;2024-02-04T07:26:12;6.60;99.90
18797;DHT22;9526;52.612;13.300;2024-02-04T07:28:38;6.60;99.90
18797;DHT22;9526;52.612;13.300;2024-02-04T07:31:02;6.60;99.90
18797;DHT22;9526;52.612;13.300;2024-02-04T07:33:26;6.60;99.90
18797;DHT22;9526;52.612;13.300;2024-02-04T07:35:54;6.60;99.90
18797;DHT22;9526;52.612;13.300;2024-02-04T07:38:17;6.70;99.90
18797;DHT22;9526;52.612;13.300;2024-02-04T07:40:41;6.70;99.90
18797;DHT22;9526;52.612;13.300;2024-02-04T07:43:05;6.70;99.90
18797;DHT22;9526;52.612;13.300;2024-02-04T07:45:31;6.70;99.90
18797;DHT22;9526;52.612;13.300;2024-02-04T07:47:55;6.80;99.90
18797;DHT22;9526;52.612;13.300;2024-02-04T07:50:19;6.80;99.90
18797;DHT22;9526;52.612;13.300;2024-02-04T07:52:43;6.80;99.90
18797;DHT22;9526;52.612;13.300;2024-02-04T07:55:07;6.90;99.90
18797;DHT22;9526;52.612;13.300;2024-02-04T07:57:31;6.90;99.90
18797;DHT22;9526;52.612;13.300;2024-02-04T07:59:55;6.90;99.90
18797;DHT22;9526;52.612;13.300;2024-02-04T08:02:22;7.00;99.90
18797;DHT22;9526;52.612;13.300;2024-02-04T08:04:46;7.00;99.90
18797;DHT22;9526;52.612;13.300;2024-02-04T08:07:09;7.10;99.90
18797;DHT22;9526;52.612;13.300;2024-02-04T08:09:33;7.10;99.90
18797;DHT22;9526;52.612;13.300;2024-02-04T08:11:57;7.10;99.90
18797;DHT22;9526;52.612;13.300;2024-02-04T08:14:21;7.20;99.90
18797;DHT22;9526;52.612;13.300;2024-02-04T08:16:44;7.20;99.90
18797;DHT22;9526;52.612;13.300;2024-02-04T08:19:12;7.30;99.90
18797;DHT22;9526;52.612;13.300;2024-02-04T08:21:36;7.30;99.90
18797;DHT22;9526;52.612;13.300;2024-02-04T08:23:59;7.40;99.90
18797;DHT22;9526;52.612;13.300;2024-02-04T08:26:23;7.40;99.90
18797;DHT22;9526;52.612;13.300;2024-02-04T08:28:47;7.50;99.90
18797;DHT22;9526;52.612;13.300;2024-02-04T08:31:12;7.50;99.90
18797;DHT22;9526;52.612;13.300;2024-02-04T08:33:36;7.60;99.90
18797;DHT22;9526;52.612;13.300;2024-02-04T08:36:01;7.60;99.90
18797;DHT22;9526;52.612;13.300;2024-02-04T08:38:25;7.60;99.90
18797;DHT22;9526;52.612;13.300;2024-02-04T08:40:49;7.70;99.90
18797;DHT22;9526;52.612;13.300;2024-02-04T08:43:13;7.70;99.90
18797;DHT22;9526;52.612;13.300;2024-02-04T08:45:36;7.70;99.90
18797;DHT22;9526;52.612;13.300;2024-02-04T08:48:00;7.80;99.90
18797;DHT22;9526;52.612;13.300;2024-02-04T08:50:24;7.80;99.90
18797;DHT22;9526;52.612;13.300;2024-02-04T08:52:49;7.80;99.90
18797;DHT22;9526;52.612;13.300;2024-02-04T08:55:14;7.80;99.90
18797;DHT22;9526;52.612;13.300;2024-02-04T08:57:37;7.90;99.90
18797;DHT22;9526;52.612;13.300;2024-02-04T09:00:02;7.90;99.90
18797;DHT22;9526;52.612;13.300;2024-02-04T09:02:25;7.90;99.90
18797;DHT22;9526;52.612;13.300;2024-02-04T09:04:49;8.00;99.90
18797;DHT22;9526;52.612;13.300;2024-02-04T09:07:13;8.00;99.90
18797;DHT22;9526;52.612;13.300;2024-02-04T09:09:38;8.00;99.90
18797;DHT22;9526;52.612;13.300;2024-02-04T09:12:03;8.00;99.90
18797;DHT22;9526;52.612;13.300;2024-02-04T09:14:27;8.00;99.90
18797;DHT22;9526;52.612;13.300;2024-02-04T09:16:51;8.00;99.90
18797;DHT22;9526;52.612;13.300;2024-02-04T09:19:15;8.10;99.90
18797;DHT22;9526;52.612;13.300;2024-02-04T09:21:39;8.10;99.90
18797;DHT22;9526;52.612;13.300;2024-02-04T09:24:04;8.20;99.90
18797;DHT22;9526;52.612;13.300;2024-02-04T09:26:30;8.20;99.90
18797;DHT22;9526;52.612;13.300;2024-02-04T09:28:54;8.20;99.90
18797;DHT22;9526;52.612;13.300;2024-02-04T09:31:17;8.10;99.90
18797;DHT22;9526;52.612;13.300;2024-02-04T09:33:41;8.20;99.90
18797;DHT22;9526;52.612;13.300;2024-02-04T09:36:06;8.30;99.90
18797;DHT22;9526;52.612;13.300;2024-02-04T09:38:30;8.30;99.90
18797;DHT22;9526;52.612;13.300;2024-02-04T09:40:54;8.40;99.90
18797;DHT22;9526;52.612;13.300;2024-02-04T09:43:20;8.40;99.90
18797;DHT22;9526;52.612;13.300;2024-02-04T09:45:44;8.50;99.90
18797;DHT22;9526;52.612;13.300;2024-02-04T09:48:08;8.50;99.90
18797;DHT22;9526;52.612;13.300;2024-02-04T09:50:33;8.50;99.90
18797;DHT22;9526;52.612;13.300;2024-02-04T09:52:59;8.60;99.90
18797;DHT22;9526;52.612;13.300;2024-02-04T09:55:23;8.50;99.90
18797;DHT22;9526;52.612;13.300;2024-02-04T09:57:48;8.60;99.90
18797;DHT22;9526;52.612;13.300;2024-02-04T10:00:14;8.60;99.90
18797;DHT22;9526;52.612;13.300;2024-02-04T10:02:42;8.70;99.90
18797;DHT22;9526;52.612;13.300;2024-02-04T10:05:06;8.70;99.90
18797;DHT22;9526;52.612;13.300;2024-02-04T10:07:32;8.60;99.90
18797;DHT22;9526;52.612;13.300;2024-02-04T10:09:56;8.70;99.90
18797;DHT22;9526;52.612;13.300;2024-02-04T10:12:20;8.70;99.90
18797;DHT22;9526;52.612;13.300;2024-02-04T10:14:43;8.70;99.90
18797;DHT22;9526;52.612;13.300;2024-02-04T10:17:08;8.80;99.90
18797;DHT22;9526;52.612;13.300;2024-02-04T10:19:32;8.80;99.90
18797;DHT22;9526;52.612;13.300;2024-02-04T10:21:59;8.90;99.90
18797;DHT22;9526;52.612;13.300;2024-02-04T10:24:23;9.00;99.90
18797;DHT22;9526;52.612;13.300;2024-02-04T10:26:47;9.10;99.90
18797;DHT22;9526;52.612;13.300;2024-02-04T10:29:11;9.10;99.90
18797;DHT22;9526;52.612;13.300;2024-02-04T10:31:35;9.20;99.90
18797;DHT22;9526;52.612;13.300;2024-02-04T10:34:01;9.20;99.90
18797;DHT22;9526;52.612;13.300;2024-02-04T10:36:25;9.30;99.90
18797;DHT22;9526;52.612;13.300;2024-02-04T10:38:49;9.30;99.90
18797;DHT22;9526;52.612;13.300;2024-02-04T10:41:15;9.30;99.90
18797;DHT22;9526;52.612;13.300;2024-02-04T10:43:42;9.30;99.90
18797;DHT22;9526;52.612;13.300;2024-02-04T10:46:14;9.30;99.90
18797;DHT22;9526;52.612;13.300;2024-02-04T10:48:43;9.20;99.90
18797;DHT22;9526;52.612;13.300;2024-02-04T10:51:11;9.20;99.90
18797;DHT22;9526;52.612;13.300;2024-02-04T10:53:35;9.20;99.90
18797;DHT22;9526;52.612;13.300;2024-02-04T10:56:03;9.20;99.90
18797;DHT22;9526;52.612;13.300;2024-02-04T10:58:30;9.30;99.90
18797;DHT22;9526;52.612;13.300;2024-02-04T11:00:54;9.30;99.90
18797;DHT22;9526;52.612;13.300;2024-02-04T11:03:18;9.30;99.90
18797;DHT22;9526;52.612;13.300;2024-02-04T11:05:45;9.20;99.90
18797;DHT22;9526;52.612;13.300;2024-02-04T11:08:12;9.20;99.90
18797;DHT22;9526;52.612;13.300;2024-02-04T11:10:37;9.20;99.90
18797;DHT22;9526;52.612;13.300;2024-02-04T11:13:04;9.20;99.90
18797;DHT22;9526;52.612;13.300;2024-02-04T11:15:35;9.10;99.90
18797;DHT22;9526;52.612;13.300;2024-02-04T11:21:38;9.10;99.90
18797;DHT22;9526;52.612;13.300;2024-02-04T11:24:22;9.10;99.90
18797;DHT22;9526;52.612;13.300;2024-02-04T11:26:54;9.10;99.90
18797;DHT22;9526;52.612;13.300;2024-02-04T11:29:18;9.10;99.90
18797;DHT22;9526;52.612;13.300;2024-02-04T11:31:42;9.10;99.90
18797;DHT22;9526;52.612;13.300;2024-02-04T11:34:06;9.10;99.90
18797;DHT22;9526;52.612;13.300;2024-02-04T11:36:37;9.00;99.90
18797;DHT22;9526;52.612;13.300;2024-02-04T11:39:11;9.10;99.90
18797;DHT22;9526;52.612;13.300;2024-02-04T11:41:44;9.10;99.90
18797;DHT22;9526;52.612;13.300;2024-02-04T11:44:09;9.00;99.90
18797;DHT22;9526;52.612;13.300;2024-02-04T11:46:33;9.00;99.90
18797;DHT22;9526;52.612;13.300;2024-02-04T11:48:57;9.00;99.90
18797;DHT22;9526;52.612;13.300;2024-02-04T11:51:22;9.00;99.90
18797;DHT22;9526;52.612;13.300;2024-02-04T11:53:46;9.10;99.90
18797;DHT22;9526;52.612;13.300;2024-02-04T11:56:10;9.10;99.90
18797;DHT22;9526;52.612;13.300;2024-02-04T11:58:37;9.00;99.90
18797;DHT22;9526;52.612;13.300;2024-02-04T12:01:01;9.10;99.90
18797;DHT22;9526;52.612;13.300;2024-02-04T12:03:31;9.10;99.90
18797;DHT22;9526;52.612;13.300;2024-02-04T12:05:57;9.20;99.90
18797;DHT22;9526;52.612;13.300;2024-02-04T12:08:23;9.20;99.90
18797;DHT22;9526;52.612;13.300;2024-02-04T12:10:50;9.20;99.90
18797;DHT22;9526;52.612;13.300;2024-02-04T12:13:15;9.10;99.90
18797;DHT22;9526;52.612;13.300;2024-02-04T12:15:42;9.10;99.90
18797;DHT22;9526;52.612;13.300;2024-02-04T12:18:07;9.10;99.90
18797;DHT22;9526;52.612;13.300;2024-02-04T12:20:32;9.00;99.90
18797;DHT22;9526;52.612;13.300;2024-02-04T12:22:55;8.90;99.90
18797;DHT22;9526;52.612;13.300;2024-02-04T12:25:20;8.90;99.90
18797;DHT22;9526;52.612;13.300;2024-02-04T12:27:43;8.90;99.90
18797;DHT22;9526;52.612;13.300;2024-02-04T12:30:10;8.90;99.90
18797;DHT22;9526;52.612;13.300;2024-02-04T12:32:35;8.90;99.90
18797;DHT22;9526;52.612;13.300;2024-02-04T12:35:00;8.90;99.90
18797;DHT22;9526;52.612;13.300;2024-02-04T12:37:24;8.90;99.90
18797;DHT22;9526;52.612;13.300;2024-02-04T12:39:49;8.90;99.90
18797;DHT22;9526;52.612;13.300;2024-02-04T12:42:15;8.90;99.90
18797;DHT22;9526;52.612;13.300;2024-02-04T12:44:40;9.00;99.90
18797;DHT22;9526;52.612;13.300;2024-02-04T12:47:05;9.00;99.90
18797;DHT22;9526;52.612;13.300;2024-02-04T12:49:30;9.00;99.90
18797;DHT22;9526;52.612;13.300;2024-02-04T12:52:04;9.00;99.90
18797;DHT22;9526;52.612;13.300;2024-02-04T12:54:28;8.90;99.90
18797;DHT22;9526;52.612;13.300;2024-02-04T12:56:53;9.00;99.90
18797;DHT22;9526;52.612;13.300;2024-02-04T12:59:26;9.00;99.90
18797;DHT22;9526;52.612;13.300;2024-02-04T13:01:55;9.00;99.90
18797;DHT22;9526;52.612;13.300;2024-02-04T13:04:19;9.00;99.90
18797;DHT22;9526;52.612;13.300;2024-02-04T13:06:45;9.00;99.90
18797;DHT22;9526;52.612;13.300;2024-02-04T13:09:09;9.10;99.90
18797;DHT22;9526;52.612;13.300;2024-02-04T13:11:33;9.10;99.90
18797;DHT22;9526;52.612;13.300;2024-02-04T13:13:57;9.10;99.90
18797;DHT22;9526;52.612;13.300;2024-02-04T13:16:21;9.10;99.90
18797;DHT22;9526;52.612;13.300;2024-02-04T13:18:52;9.00;99.90
18797;DHT22;9526;52.612;13.300;2024-02-04T13:21:16;9.00;99.90
18797;DHT22;9526;52.612;13.300;2024-02-04T13:23:44;9.00;99.90
18797;DHT22;9526;52.612;13.300;2024-02-04T13:26:08;9.00;99.90
18797;DHT22;9526;52.612;13.300;2024-02-04T13:28:32;9.00;99.90
18797;DHT22;9526;52.612;13.300;2024-02-04T13:30:55;9.00;99.90
18797;DHT22;9526;52.612;13.300;2024-02-04T13:33:19;9.00;99.90
18797;DHT22;9526;52.612;13.300;2024-02-04T13:35:43;9.00;99.90
18797;DHT22;9526;52.612;13.300;2024-02-04T13:38:08;8.90;99.90
18797;DHT22;9526;52.612;13.300;2024-02-04T13:40:33;8.90;99.90
18797;DHT22;9526;52.612;13.300;2024-02-04T13:42:57;9.00;99.90
18797;DHT22;9526;52.612;13.300;2024-02-04T13:45:21;8.90;99.90
18797;DHT22;9526;52.612;13.300;2024-02-04T13:47:44;8.90;99.90
18797;DHT22;9526;52.612;13.300;2024-02-04T13:50:09;8.90;99.90
18797;DHT22;9526;52.612;13.300;2024-02-04T13:52:34;8.90;99.90
18797;DHT22;9526;52.612;13.300;2024-02-04T13:54:58;8.90;99.90
18797;DHT22;9526;52.612;13.300;2024-02-04T13:57:23;8.90;99.90
18797;DHT22;9526;52.612;13.300;2024-02-04T13:59:46;8.90;99.90
18797;DHT22;9526;52.612;13.300;2024-02-04T14:02:10;8.90;99.90
18797;DHT22;9526;52.612;13.300;2024-02-04T14:04:34;8.90;99.90
18797;DHT22;9526;52.612;13.300;2024-02-04T14:06:58;8.80;99.90
18797;DHT22;9526;52.612;13.300;2024-02-04T14:09:22;8.80;99.90
18797;DHT22;9526;52.612;13.300;2024-02-04T14:11:45;8.80;99.90
18797;DHT22;9526;52.612;13.300;2024-02-04T14:14:11;8.90;99.90
18797;DHT22;9526;52.612;13.300;2024-02-04T14:16:35;8.90;99.90
18797;DHT22;9526;52.612;13.300;2024-02-04T14:18:59;8.90;99.90
18797;DHT22;9526;52.612;13.300;2024-02-04T14:21:23;8.90;99.90
18797;DHT22;9526;52.612;13.300;2024-02-04T14:23:46;8.90;99.90
18797;DHT22;9526;52.612;13.300;2024-02-04T14:26:16;8.90;99.90
18797;DHT22;9526;52.612;13.300;2024-02-04T14:28:40;8.90;99.90
18797;DHT22;9526;52.612;13.300;2024-02-04T14:31:05;8.90;99.90
18797;DHT22;9526;52.612;13.300;2024-02-04T14:33:29;8.90;99.90
18797;DHT22;9526;52.612;13.300;2024-02-04T14:35:53;8.90;99.90
18797;DHT22;9526;52.612;13.300;2024-02-04T14:38:16;8.90;99.90
18797;DHT22;9526;52.612;13.300;2024-02-04T14:40:40;8.90;99.90
18797;DHT22;9526;52.612;13.300;2024-02-04T14:43:04;8.90;99.90
18797;DHT22;9526;52.612;13.300;2024-02-04T14:45:28;8.90;99.90
18797;DHT22;9526;52.612;13.300;2024-02-04T14:47:53;8.90;99.90
18797;DHT22;9526;52.612;13.300;2024-02-04T14:50:17;9.00;99.90
18797;DHT22;9526;52.612;13.300;2024-02-04T14:52:42;8.90;99.90
18797;DHT22;9526;52.612;13.300;2024-02-04T14:55:06;8.90;99.90
18797;DHT22;9526;52.612;13.300;2024-02-04T14:57:32;8.90;99.90
18797;DHT22;9526;52.612;13.300;2024-02-04T14:59:56;8.90;99.90
18797;DHT22;9526;52.612;13.300;2024-02-04T15:02:19;8.90;99.90
18797;DHT22;9526;52.612;13.300;2024-02-04T15:04:45;8.90;99.90
18797;DHT22;9526;52.612;13.300;2024-02-04T15:07:09;8.90;99.90
18797;DHT22;9526;52.612;13.300;2024-02-04T15:09:32;8.90;99.90
18797;DHT22;9526;52.612;13.300;2024-02-04T15:11:57;8.90;99.90
18797;DHT22;9526;52.612;13.300;2024-02-04T15:14:22;8.90;99.90
18797;DHT22;9526;52.612;13.300;2024-02-04T15:16:46;8.90;99.90
18797;DHT22;9526;52.612;13.300;2024-02-04T15:19:11;8.90;99.90
18797;DHT22;9526;52.612;13.300;2024-02-04T15:21:37;8.90;99.90
18797;DHT22;9526;52.612;13.300;2024-02-04T15:24:02;8.90;99.90
18797;DHT22;9526;52.612;13.300;2024-02-04T15:26:28;8.90;99.90
18797;DHT22;9526;52.612;13.300;2024-02-04T15:28:52;8.90;99.90
18797;DHT22;9526;52.612;13.300;2024-02-04T15:31:16;8.90;99.90